createdAt,value
2019-06-01T00:01:34.428Z,2.30
2019-06-01T00:04:02.886Z,2.10
2019-06-01T00:06:31.060Z,2.37
2019-06-01T00:08:59.178Z,2.30
2019-06-01T00:11:27.414Z,2.10
2019-06-01T00:13:55.600Z,2.42
2019-06-01T00:16:23.793Z,2.45
2019-06-01T00:18:51.953Z,2.33
2019-06-01T00:21:20.125Z,2.40
2019-06-01T00:23:48.673Z,2.42
2019-06-01T00:26:18.672Z,2.40
2019-06-01T00:28:47.901Z,2.40
2019-06-01T00:31:16.203Z,2.40
2019-06-01T00:33:45.459Z,2.40
2019-06-01T00:36:14.885Z,2.42
2019-06-01T00:38:43.905Z,2.40
2019-06-01T00:41:12.171Z,2.15
2019-06-01T00:43:40.400Z,2.30
2019-06-01T00:46:08.602Z,2.33
2019-06-01T00:48:36.759Z,2.30
2019-06-01T00:51:04.972Z,2.25
2019-06-01T00:53:33.119Z,2.30
2019-06-01T00:56:01.299Z,2.25
2019-06-01T00:58:29.460Z,2.12
2019-06-01T01:00:57.664Z,2.40
2019-06-01T01:03:25.898Z,2.60
2019-06-01T01:05:54.851Z,2.60
2019-06-01T01:08:23.191Z,2.20
2019-06-01T01:10:51.383Z,2.47
2019-06-01T01:13:21.147Z,2.47
2019-06-01T01:15:51.366Z,2.40
2019-06-01T01:18:19.723Z,2.40
2019-06-01T01:20:47.901Z,2.30
2019-06-01T01:23:16.125Z,2.40
2019-06-01T01:25:44.353Z,2.27
2019-06-01T01:28:12.567Z,2.90
2019-06-01T01:30:41.261Z,2.30
2019-06-01T01:33:09.485Z,2.40
2019-06-01T01:35:37.941Z,2.40
2019-06-01T01:38:06.107Z,2.30
2019-06-01T01:40:34.234Z,2.50
2019-06-01T01:43:02.604Z,2.47
2019-06-01T01:45:30.914Z,2.43
2019-06-01T01:47:59.281Z,2.20
2019-06-01T01:50:28.636Z,2.40
2019-06-01T01:52:57.230Z,2.37
2019-06-01T01:55:25.570Z,2.30
2019-06-01T01:57:53.767Z,2.62
2019-06-01T02:00:42.207Z,2.35
2019-06-01T02:03:10.627Z,2.40
2019-06-01T02:05:38.908Z,2.42
2019-06-01T02:08:07.254Z,2.40
2019-06-01T02:10:35.532Z,2.45
2019-06-01T02:13:03.961Z,2.53
2019-06-01T02:15:32.094Z,2.67
2019-06-01T02:18:02.721Z,2.60
2019-06-01T02:20:31.623Z,2.70
2019-06-01T02:23:00.992Z,2.60
2019-06-01T02:25:29.217Z,2.60
2019-06-01T02:27:57.420Z,2.60
2019-06-01T02:30:25.692Z,2.85
2019-06-01T02:32:53.933Z,2.50
2019-06-01T02:35:22.074Z,2.80
2019-06-01T02:37:50.257Z,2.80
2019-06-01T02:40:18.630Z,2.70
2019-06-01T02:42:47.197Z,2.60
2019-06-01T02:45:15.433Z,2.60
2019-06-01T02:47:43.590Z,2.55
2019-06-01T02:50:12.240Z,2.62
2019-06-01T02:52:40.459Z,2.45
2019-06-01T02:55:13.277Z,2.42
2019-06-01T02:57:41.379Z,2.30
2019-06-01T03:00:10.058Z,2.60
2019-06-01T03:02:38.223Z,2.50
2019-06-01T03:05:07.706Z,2.60
2019-06-01T03:07:36.759Z,2.40
2019-06-01T03:10:07.032Z,2.62
2019-06-01T03:12:36.961Z,2.60
2019-06-01T03:15:06.531Z,2.72
2019-06-01T03:17:36.543Z,2.80
2019-06-01T03:20:06.304Z,2.80
2019-06-01T03:22:34.708Z,2.52
2019-06-01T03:25:06.284Z,2.90
2019-06-01T03:27:36.032Z,2.77
2019-06-01T03:30:06.843Z,2.87
2019-06-01T03:32:37.284Z,2.72
2019-06-01T03:35:06.776Z,3.00
2019-06-01T03:37:35.314Z,2.80
2019-06-01T03:40:09.620Z,3.00
2019-06-01T03:42:34.998Z,2.60
2019-06-01T03:45:05.442Z,2.70
2019-06-01T03:47:33.666Z,2.70
2019-06-01T03:50:02.983Z,2.70
2019-06-01T03:52:31.721Z,2.90
2019-06-01T03:54:59.845Z,3.00
2019-06-01T03:57:28.068Z,2.90
2019-06-01T03:59:57.332Z,3.00
2019-06-01T04:02:33.127Z,3.08
2019-06-01T04:04:55.412Z,3.10
2019-06-01T04:07:23.620Z,3.17
2019-06-01T04:09:51.785Z,2.77
2019-06-01T04:12:19.977Z,2.77
2019-06-01T04:14:48.185Z,2.62
2019-06-01T04:17:16.344Z,2.80
2019-06-01T04:19:44.545Z,3.10
2019-06-01T04:22:12.934Z,3.02
2019-06-01T04:24:41.103Z,2.95
2019-06-01T04:27:10.248Z,3.08
2019-06-01T04:29:38.587Z,2.92
2019-06-01T04:32:06.824Z,3.00
2019-06-01T04:34:35.790Z,2.90
2019-06-01T04:37:05.108Z,2.90
2019-06-01T04:39:33.388Z,2.80
2019-06-01T04:42:01.568Z,2.90
2019-06-01T04:44:29.815Z,3.00
2019-06-01T04:46:57.955Z,3.07
2019-06-01T04:49:26.182Z,3.08
2019-06-01T04:51:54.435Z,2.80
2019-06-01T04:54:22.690Z,2.98
2019-06-01T04:56:50.838Z,2.80
2019-06-01T04:59:20.044Z,2.90
2019-06-01T05:01:48.415Z,2.90
2019-06-01T05:04:17.081Z,2.70
2019-06-01T05:06:45.419Z,2.77
2019-06-01T05:09:13.593Z,2.65
2019-06-01T05:11:41.761Z,2.70
2019-06-01T05:14:09.880Z,2.90
2019-06-01T05:16:38.138Z,2.90
2019-06-01T05:19:10.162Z,2.80
2019-06-01T05:21:38.363Z,3.00
2019-06-01T05:24:06.677Z,3.20
2019-06-01T05:26:34.789Z,2.83
2019-06-01T05:29:02.987Z,2.87
2019-06-01T05:31:31.112Z,2.60
2019-06-01T05:33:59.462Z,2.80
2019-06-01T05:36:27.652Z,2.90
2019-06-01T05:38:57.370Z,3.00
2019-06-01T05:41:25.591Z,2.52
2019-06-01T05:43:53.815Z,2.90
2019-06-01T05:46:22.293Z,2.90
2019-06-01T05:48:50.579Z,2.80
2019-06-01T05:51:20.194Z,2.83
2019-06-01T05:53:48.388Z,2.80
2019-06-01T05:56:16.890Z,2.75
2019-06-01T05:58:45.210Z,2.50
2019-06-01T06:01:14.670Z,2.70
2019-06-01T06:03:44.065Z,2.90
2019-06-01T06:06:12.274Z,2.80
2019-06-01T06:08:40.403Z,2.85
2019-06-01T06:11:08.879Z,2.58
2019-06-01T06:13:37.026Z,3.00
2019-06-01T06:16:05.146Z,2.80
2019-06-01T06:18:33.351Z,2.95
2019-06-01T06:21:01.532Z,3.08
2019-06-01T06:23:29.746Z,3.02
2019-06-01T06:25:57.925Z,2.52
2019-06-01T06:28:28.852Z,2.55
2019-06-01T06:30:57.061Z,2.58
2019-06-01T06:33:25.446Z,2.45
2019-06-01T06:35:53.738Z,2.70
2019-06-01T06:38:22.047Z,2.58
2019-06-01T06:40:51.390Z,2.37
2019-06-01T06:43:27.547Z,2.72
2019-06-01T06:45:49.387Z,2.60
2019-06-01T06:48:17.588Z,2.20
2019-06-01T06:50:45.853Z,2.40
2019-06-01T06:53:25.322Z,2.35
2019-06-01T06:55:45.394Z,2.55
2019-06-01T06:58:13.587Z,2.60
2019-06-01T07:00:41.774Z,2.20
2019-06-01T07:03:10.004Z,2.40
2019-06-01T07:05:38.180Z,2.30
2019-06-01T07:08:06.455Z,2.40
2019-06-01T07:10:34.703Z,2.20
2019-06-01T07:13:02.891Z,2.25
2019-06-01T07:15:31.761Z,2.35
2019-06-01T07:18:00.063Z,2.40
2019-06-01T07:20:29.073Z,2.40
2019-06-01T07:22:57.248Z,2.30
2019-06-01T07:25:26.593Z,1.93
2019-06-01T07:27:56.648Z,2.02
2019-06-01T07:30:25.190Z,2.30
2019-06-01T07:32:54.566Z,2.05
2019-06-01T07:35:22.864Z,2.33
2019-06-01T07:37:51.052Z,1.92
2019-06-01T07:40:20.934Z,1.95
2019-06-01T07:42:49.288Z,2.52
2019-06-01T07:45:17.631Z,2.30
2019-06-01T07:47:45.845Z,2.20
2019-06-01T07:50:14.042Z,2.00
2019-06-01T07:52:42.290Z,2.10
2019-06-01T07:55:10.662Z,1.98
2019-06-01T07:57:42.578Z,2.30
2019-06-01T08:00:08.898Z,2.17
2019-06-01T08:02:37.081Z,1.98
2019-06-01T08:05:06.752Z,2.40
2019-06-01T08:07:36.404Z,2.00
2019-06-01T08:10:05.444Z,2.30
2019-06-01T08:12:33.619Z,2.72
2019-06-01T08:15:02.011Z,2.33
2019-06-01T08:17:32.243Z,2.30
2019-06-01T08:20:00.607Z,2.10
2019-06-01T08:22:30.321Z,2.52
2019-06-01T08:24:58.596Z,2.30
2019-06-01T08:27:27.014Z,2.35
2019-06-01T08:29:55.267Z,2.47
2019-06-01T08:32:24.470Z,2.80
2019-06-01T08:35:07.396Z,2.33
2019-06-01T08:37:23.474Z,2.85
2019-06-01T08:39:51.819Z,2.90
2019-06-01T08:42:21.096Z,2.60
2019-06-01T08:44:49.315Z,2.90
2019-06-01T08:47:17.532Z,2.33
2019-06-01T08:49:45.786Z,2.50
2019-06-01T08:52:14.011Z,2.40
2019-06-01T08:54:42.235Z,2.80
2019-06-01T08:57:10.421Z,2.90
2019-06-01T08:59:38.673Z,2.90
2019-06-01T09:02:07.531Z,2.58
2019-06-01T09:04:35.786Z,2.95
2019-06-01T09:07:03.990Z,3.27
2019-06-01T09:09:33.132Z,2.75
2019-06-01T09:12:01.355Z,2.83
2019-06-01T09:14:29.543Z,2.87
2019-06-01T09:16:57.732Z,3.20
2019-06-01T09:19:27.245Z,3.47
2019-06-01T09:21:55.526Z,3.30
2019-06-01T09:24:23.728Z,3.00
2019-06-01T09:26:51.972Z,2.67
2019-06-01T09:29:20.316Z,2.87
2019-06-01T09:31:48.602Z,3.20
2019-06-01T09:34:17.893Z,3.55
2019-06-01T09:36:46.118Z,3.20
2019-06-01T09:39:14.375Z,3.70
2019-06-01T09:41:44.131Z,3.27
2019-06-01T09:44:12.306Z,3.20
2019-06-01T09:46:41.909Z,3.10
2019-06-01T09:49:10.050Z,2.83
2019-06-01T09:51:38.261Z,3.37
2019-06-01T09:54:06.561Z,3.60
2019-06-01T09:56:37.385Z,2.95
2019-06-01T09:59:04.692Z,3.00
2019-06-01T10:01:32.928Z,3.92
2019-06-01T10:04:01.145Z,3.00
2019-06-01T10:06:30.328Z,2.90
2019-06-01T10:08:58.697Z,3.25
2019-06-01T10:11:26.843Z,2.97
2019-06-01T10:13:55.054Z,2.95
2019-06-01T10:16:23.243Z,3.00
2019-06-01T10:18:51.464Z,3.10
2019-06-01T10:21:19.656Z,3.20
2019-06-01T10:23:49.750Z,3.02
2019-06-01T10:26:17.713Z,3.00
2019-06-01T10:28:46.080Z,2.92
2019-06-01T10:31:14.223Z,3.10
2019-06-01T10:33:43.322Z,2.37
2019-06-01T10:36:20.580Z,2.70
2019-06-01T10:38:41.580Z,3.00
2019-06-01T10:41:09.787Z,2.65
2019-06-01T10:43:37.981Z,3.05
2019-06-01T10:46:06.177Z,2.83
2019-06-01T10:48:34.544Z,2.90
2019-06-01T10:51:03.063Z,3.00
2019-06-01T10:53:32.068Z,2.90
2019-06-01T10:56:00.249Z,2.77
2019-06-01T10:58:28.535Z,2.90
2019-06-01T11:00:56.694Z,2.92
2019-06-01T11:03:24.887Z,2.80
2019-06-01T11:05:53.122Z,2.85
2019-06-01T11:08:21.320Z,2.50
2019-06-01T11:10:49.491Z,3.10
2019-06-01T11:13:17.678Z,2.70
2019-06-01T11:15:45.880Z,2.55
2019-06-01T11:18:14.445Z,2.70
2019-06-01T11:20:43.557Z,2.92
2019-06-01T11:23:11.916Z,2.57
2019-06-01T11:25:40.081Z,2.10
2019-06-01T11:28:08.362Z,2.58
2019-06-01T11:30:37.836Z,2.50
2019-06-01T11:33:06.157Z,2.15
2019-06-01T11:35:34.962Z,2.43
2019-06-01T11:38:03.305Z,2.30
2019-06-01T11:40:31.510Z,1.98
2019-06-01T11:42:59.795Z,2.30
2019-06-01T11:45:27.947Z,2.10
2019-06-01T11:47:56.159Z,2.42
2019-06-01T11:50:24.332Z,2.10
2019-06-01T11:52:52.529Z,2.00
2019-06-01T11:55:22.334Z,2.17
2019-06-01T11:57:50.528Z,2.40
2019-06-01T12:00:21.772Z,2.20
2019-06-01T12:02:49.943Z,1.95
2019-06-01T12:05:18.172Z,1.90
2019-06-01T12:07:46.331Z,2.12
2019-06-01T12:10:14.585Z,1.92
2019-06-01T12:12:44.204Z,2.27
2019-06-01T12:15:12.912Z,2.00
2019-06-01T12:17:42.930Z,2.90
2019-06-01T12:20:11.642Z,2.00
2019-06-01T12:22:40.828Z,2.72
2019-06-01T12:25:09.324Z,2.20
2019-06-01T12:27:37.515Z,1.92
2019-06-01T12:30:06.732Z,2.27
2019-06-01T12:32:35.048Z,1.90
2019-06-01T12:35:04.533Z,2.95
2019-06-01T12:37:52.432Z,2.03
2019-06-01T12:40:07.563Z,2.02
2019-06-01T12:42:34.259Z,1.90
2019-06-01T12:45:02.929Z,2.20
2019-06-01T12:47:31.739Z,2.10
2019-06-01T12:49:59.986Z,1.98
2019-06-01T12:52:28.220Z,3.00
2019-06-01T12:54:56.394Z,2.70
2019-06-01T12:57:24.602Z,2.37
2019-06-01T12:59:53.225Z,2.52
2019-06-01T13:02:21.536Z,2.45
2019-06-01T13:04:51.198Z,3.55
2019-06-01T13:07:19.404Z,2.62
2019-06-01T13:09:48.583Z,2.47
2019-06-01T13:12:18.954Z,2.17
2019-06-01T13:14:49.348Z,2.80
2019-06-01T13:17:17.635Z,2.27
2019-06-01T13:19:45.787Z,2.37
2019-06-01T13:22:13.949Z,2.37
2019-06-01T13:24:43.542Z,2.33
2019-06-01T13:27:11.970Z,2.02
2019-06-01T13:29:40.222Z,2.30
2019-06-01T13:32:08.475Z,3.10
2019-06-01T13:34:36.685Z,1.92
2019-06-01T13:37:05.043Z,1.90
2019-06-01T13:39:33.162Z,2.05
2019-06-01T13:42:01.343Z,2.15
2019-06-01T13:44:29.485Z,1.80
2019-06-01T13:46:57.652Z,1.87
2019-06-01T13:49:25.824Z,2.00
2019-06-01T13:51:54.665Z,2.12
2019-06-01T13:54:22.973Z,2.60
2019-06-01T13:56:51.202Z,2.50
2019-06-01T13:59:19.355Z,2.90
2019-06-01T14:01:48.694Z,2.60
2019-06-01T14:04:18.091Z,2.60
2019-06-01T14:06:47.070Z,2.90
2019-06-01T14:09:15.273Z,3.00
2019-06-01T14:11:43.471Z,2.77
2019-06-01T14:14:11.643Z,3.22
2019-06-01T14:16:39.868Z,3.45
2019-06-01T14:19:08.061Z,3.27
2019-06-01T14:21:36.262Z,3.55
2019-06-01T14:24:04.423Z,2.85
2019-06-01T14:26:32.546Z,3.22
2019-06-01T14:29:00.723Z,3.50
2019-06-01T14:31:28.942Z,3.20
2019-06-01T14:33:57.225Z,3.58
2019-06-01T14:36:25.399Z,2.87
2019-06-01T14:38:55.165Z,3.25
2019-06-01T14:41:23.468Z,2.52
2019-06-01T14:43:51.627Z,2.58
2019-06-01T14:46:19.828Z,3.22
2019-06-01T14:48:49.269Z,2.90
2019-06-01T14:51:17.593Z,2.60
2019-06-01T14:53:45.724Z,2.40
2019-06-01T14:56:13.949Z,2.15
2019-06-01T14:58:42.169Z,2.08
2019-06-01T15:01:10.372Z,2.12
2019-06-01T15:03:38.671Z,2.83
2019-06-01T15:06:07.953Z,2.80
2019-06-01T15:08:36.141Z,3.45
2019-06-01T15:11:04.427Z,3.12
2019-06-01T15:13:32.669Z,3.30
2019-06-01T15:16:01.943Z,3.25
2019-06-01T15:18:30.283Z,3.10
2019-06-01T15:20:58.528Z,3.30
2019-06-01T15:23:26.729Z,3.15
2019-06-01T15:25:54.879Z,2.90
2019-06-01T15:28:23.081Z,2.90
2019-06-01T15:30:51.263Z,3.10
2019-06-01T15:33:19.471Z,3.20
2019-06-01T15:35:47.682Z,3.10
2019-06-01T15:38:16.003Z,3.30
2019-06-01T15:40:44.257Z,2.95
2019-06-01T15:43:12.653Z,2.92
2019-06-01T15:45:41.420Z,2.70
2019-06-01T15:48:09.674Z,2.87
2019-06-01T15:50:37.950Z,2.72
2019-06-01T15:53:06.147Z,2.77
2019-06-01T15:55:34.271Z,2.50
2019-06-01T15:58:03.094Z,3.02
2019-06-01T16:00:31.381Z,2.60
2019-06-01T16:03:01.176Z,2.70
2019-06-01T16:05:29.379Z,2.72
2019-06-01T16:07:57.586Z,2.43
2019-06-01T16:10:25.896Z,2.77
2019-06-01T16:12:55.262Z,2.90
2019-06-01T16:15:24.452Z,3.12
2019-06-01T16:17:53.725Z,2.70
2019-06-01T16:20:21.931Z,2.85
2019-06-01T16:22:50.079Z,3.15
2019-06-01T16:25:18.249Z,2.60
2019-06-01T16:27:46.385Z,2.80
2019-06-01T16:30:16.026Z,2.87
2019-06-01T16:32:44.256Z,2.92
2019-06-01T16:35:12.495Z,3.22
2019-06-01T16:37:40.830Z,3.10
2019-06-01T16:40:11.079Z,2.77
2019-06-01T16:42:40.340Z,3.05
2019-06-01T16:45:09.731Z,3.40
2019-06-01T16:47:37.978Z,3.37
2019-06-01T16:50:07.313Z,3.00
2019-06-01T16:52:35.677Z,3.00
2019-06-01T16:55:06.978Z,2.98
2019-06-01T16:57:35.385Z,3.10
2019-06-01T17:00:05.334Z,3.02
2019-06-01T17:02:33.975Z,3.40
2019-06-01T17:07:42.373Z,3.33
2019-06-01T17:10:24.502Z,3.12
2019-06-01T17:12:43.627Z,3.10
2019-06-01T17:15:11.581Z,2.92
2019-06-01T17:17:39.903Z,3.30
2019-06-01T17:20:09.696Z,3.15
2019-06-01T17:22:38.028Z,3.10
2019-06-01T17:25:07.969Z,2.95
2019-06-01T17:27:36.417Z,3.00
2019-06-01T17:30:09.519Z,3.25
2019-06-01T17:32:35.103Z,3.27
2019-06-01T17:35:03.731Z,3.10
2019-06-01T17:37:33.207Z,3.10
2019-06-01T17:40:02.468Z,2.95
2019-06-01T17:42:31.234Z,3.27
2019-06-01T17:45:00.711Z,2.90
2019-06-01T17:47:29.401Z,3.10
2019-06-01T17:49:57.655Z,3.10
2019-06-01T17:52:27.876Z,3.03
2019-06-01T17:54:56.039Z,3.05
2019-06-01T17:57:24.249Z,3.20
2019-06-01T17:59:52.503Z,3.10
2019-06-01T18:02:20.769Z,2.83
2019-06-01T18:04:48.937Z,2.87
2019-06-01T18:07:17.122Z,3.10
2019-06-01T18:09:45.295Z,2.90
2019-06-01T18:12:13.506Z,3.10
2019-06-01T18:14:41.608Z,2.87
2019-06-01T18:17:10.335Z,3.10
2019-06-01T18:19:38.562Z,2.77
2019-06-01T18:22:06.820Z,2.80
2019-06-01T18:24:34.965Z,2.80
2019-06-01T18:27:04.275Z,2.87
2019-06-01T18:29:32.670Z,3.02
2019-06-01T18:32:00.911Z,3.25
2019-06-01T18:34:29.088Z,3.15
2019-06-01T18:36:57.305Z,3.22
2019-06-01T18:39:25.478Z,3.35
2019-06-01T18:41:53.831Z,3.10
2019-06-01T18:44:21.943Z,3.17
2019-06-01T18:46:50.517Z,3.30
2019-06-01T18:49:18.731Z,3.15
2019-06-01T18:51:47.132Z,3.00
2019-06-01T18:54:16.490Z,3.20
2019-06-01T18:56:44.866Z,3.17
2019-06-01T18:59:14.386Z,3.40
2019-06-01T19:01:43.098Z,3.50
2019-06-01T19:04:11.827Z,3.00
2019-06-01T19:06:40.183Z,3.30
2019-06-01T19:09:09.875Z,3.33
2019-06-01T19:11:38.175Z,3.10
2019-06-01T19:14:07.825Z,3.20
2019-06-01T19:16:36.298Z,3.20
2019-06-01T19:19:06.255Z,3.27
2019-06-01T19:24:23.576Z,3.22
2019-06-01T19:26:53.551Z,3.55
2019-06-01T19:29:21.738Z,3.08
2019-06-01T19:31:50.704Z,3.20
2019-06-01T19:34:18.950Z,3.30
2019-06-01T19:36:47.726Z,3.30
2019-06-01T19:39:17.630Z,3.40
2019-06-01T19:41:46.034Z,3.08
2019-06-01T19:44:15.684Z,3.42
2019-06-01T19:46:46.064Z,3.23
2019-06-01T19:49:16.952Z,3.70
2019-06-01T19:51:45.385Z,3.62
2019-06-01T19:54:14.910Z,3.40
2019-06-01T19:56:43.609Z,3.35
2019-06-01T19:59:12.491Z,3.80
2019-06-01T20:01:40.872Z,3.57
2019-06-01T20:04:12.172Z,3.47
2019-06-01T20:06:41.078Z,3.60
2019-06-01T20:09:10.730Z,3.90
2019-06-01T20:11:39.504Z,3.30
2019-06-01T20:14:10.120Z,4.03
2019-06-01T20:16:38.796Z,4.00
2019-06-01T20:19:09.536Z,3.58
2019-06-01T20:21:38.016Z,3.60
2019-06-01T20:24:08.246Z,3.80
2019-06-01T20:26:41.973Z,3.70
2019-06-01T20:29:06.787Z,3.17
2019-06-01T20:31:35.234Z,4.45
2019-06-01T20:34:03.998Z,4.03
2019-06-01T20:36:32.464Z,5.20
2019-06-01T20:39:04.327Z,4.15
2019-06-01T20:41:32.242Z,3.83
2019-06-01T20:44:00.994Z,3.90
2019-06-01T20:46:33.333Z,3.80
2019-06-01T20:49:02.566Z,3.77
2019-06-01T20:51:32.996Z,3.70
2019-06-01T20:54:01.754Z,4.55
2019-06-01T20:56:33.243Z,4.33
2019-06-01T20:59:01.726Z,4.03
2019-06-01T21:01:30.437Z,4.40
2019-06-01T21:03:58.990Z,4.67
2019-06-01T21:06:27.253Z,3.77
2019-06-01T21:08:55.539Z,5.30
2019-06-01T21:11:25.300Z,4.30
2019-06-01T21:13:53.587Z,4.50
2019-06-01T21:16:22.385Z,5.08
2019-06-01T21:18:50.638Z,5.42
2019-06-01T21:21:18.932Z,5.42
2019-06-01T21:23:47.270Z,4.95
2019-06-01T21:26:16.807Z,3.85
2019-06-01T21:28:45.215Z,5.30
2019-06-01T21:31:14.800Z,5.03
2019-06-01T21:33:43.392Z,4.70
2019-06-01T21:36:11.765Z,5.33
2019-06-01T21:38:40.005Z,4.67
2019-06-01T21:41:08.413Z,4.60
2019-06-01T21:43:36.948Z,4.40
2019-06-01T21:46:05.365Z,5.85
2019-06-01T21:48:33.662Z,4.90
2019-06-01T21:51:02.453Z,4.50
2019-06-01T21:53:32.337Z,4.43
2019-06-01T21:56:00.608Z,5.03
2019-06-01T21:58:30.144Z,4.40
2019-06-01T22:00:58.515Z,4.03
2019-06-01T22:03:28.570Z,4.30
2019-06-01T22:05:56.864Z,4.45
2019-06-01T22:08:25.409Z,4.30
2019-06-01T22:10:53.863Z,4.47
2019-06-01T22:13:25.517Z,4.37
2019-06-01T22:15:53.698Z,4.42
2019-06-01T22:18:22.072Z,4.10
2019-06-01T22:20:51.499Z,4.40
2019-06-01T22:23:21.792Z,4.00
2019-06-01T22:25:50.070Z,4.17
2019-06-01T22:28:18.656Z,3.90
2019-06-01T22:30:46.852Z,3.80
2019-06-01T22:33:15.006Z,3.55
2019-06-01T22:35:43.155Z,4.20
2019-06-01T22:38:11.356Z,3.80
2019-06-01T22:40:39.583Z,3.67
2019-06-01T22:43:07.975Z,3.83
2019-06-01T22:45:37.601Z,3.90
2019-06-01T22:48:05.730Z,3.80
2019-06-01T22:50:33.918Z,3.83
2019-06-01T22:53:02.141Z,4.20
2019-06-01T22:55:30.321Z,3.80
2019-06-01T22:58:00.043Z,4.10
2019-06-01T23:00:28.243Z,3.92
2019-06-01T23:02:57.254Z,3.87
2019-06-01T23:05:25.455Z,3.92
2019-06-01T23:07:53.674Z,3.80
2019-06-01T23:10:27.806Z,4.05
2019-06-01T23:12:51.700Z,4.33
2019-06-01T23:15:19.877Z,3.33
2019-06-01T23:17:48.070Z,3.87
2019-06-01T23:20:16.249Z,4.00
2019-06-01T23:22:44.500Z,3.70
2019-06-01T23:25:12.687Z,3.53
2019-06-01T23:27:40.843Z,3.90
2019-06-01T23:30:09.144Z,4.53
2019-06-01T23:32:37.299Z,4.37
2019-06-01T23:35:05.851Z,3.65
2019-06-01T23:37:34.025Z,3.87
2019-06-01T23:40:02.240Z,3.83
2019-06-01T23:42:32.764Z,3.98
2019-06-01T23:45:01.791Z,3.80
2019-06-01T23:47:31.286Z,4.00
2019-06-01T23:49:59.522Z,3.80
2019-06-01T23:52:27.794Z,3.98
2019-06-01T23:54:55.963Z,4.17
2019-06-01T23:57:24.121Z,4.28
2019-06-01T23:59:53.334Z,4.10
